sensor_id;sensor_type;location;lat;lon;timestamp;P1;durP1;ratioP1;P2;durP2;ratioP2
2474;SDS011;1248;48.694;10.160;2023-02-15T00:01:07;112.17;;;33.30;;
2474;SDS011;1248;48.694;10.160;2023-02-15T00:03:35;93.23;;;30.50;;
2474;SDS011;1248;48.694;10.160;2023-02-15T00:06:02;97.70;;;34.57;;
2474;SDS011;1248;48.694;10.160;2023-02-15T00:08:30;116.80;;;33.87;;
2474;SDS011;1248;48.694;10.160;2023-02-15T00:11:03;104.13;;;33.97;;
2474;SDS011;1248;48.694;10.160;2023-02-15T00:13:31;153.83;;;35.77;;
2474;SDS011;1248;48.694;10.160;2023-02-15T00:16:01;85.70;;;29.33;;
2474;SDS011;1248;48.694;10.160;2023-02-15T00:18:30;129.20;;;34.40;;
2474;SDS011;1248;48.694;10.160;2023-02-15T00:20:57;122.57;;;36.77;;
2474;SDS011;1248;48.694;10.160;2023-02-15T00:23:25;119.30;;;37.20;;
2474;SDS011;1248;48.694;10.160;2023-02-15T00:26:02;106.77;;;32.73;;
2474;SDS011;1248;48.694;10.160;2023-02-15T00:28:30;138.20;;;36.67;;
2474;SDS011;1248;48.694;10.160;2023-02-15T00:31:02;124.03;;;39.93;;
2474;SDS011;1248;48.694;10.160;2023-02-15T00:33:31;129.10;;;36.50;;
2474;SDS011;1248;48.694;10.160;2023-02-15T00:35:58;76.90;;;30.43;;
2474;SDS011;1248;48.694;10.160;2023-02-15T00:38:26;91.90;;;32.63;;
2474;SDS011;1248;48.694;10.160;2023-02-15T00:40:53;75.30;;;31.30;;
2474;SDS011;1248;48.694;10.160;2023-02-15T00:43:20;108.33;;;35.40;;
2474;SDS011;1248;48.694;10.160;2023-02-15T00:45:47;75.73;;;28.77;;
2474;SDS011;1248;48.694;10.160;2023-02-15T00:48:15;156.90;;;33.80;;
2474;SDS011;1248;48.694;10.160;2023-02-15T00:50:45;126.00;;;32.80;;
2474;SDS011;1248;48.694;10.160;2023-02-15T00:53:13;114.33;;;32.20;;
2474;SDS011;1248;48.694;10.160;2023-02-15T00:55:40;182.17;;;36.50;;
2474;SDS011;1248;48.694;10.160;2023-02-15T00:58:07;142.37;;;36.17;;
2474;SDS011;1248;48.694;10.160;2023-02-15T01:00:35;162.50;;;36.50;;
2474;SDS011;1248;48.694;10.160;2023-02-15T01:03:02;141.77;;;31.43;;
2474;SDS011;1248;48.694;10.160;2023-02-15T01:05:30;135.20;;;34.90;;
2474;SDS011;1248;48.694;10.160;2023-02-15T01:07:59;86.80;;;30.00;;
2474;SDS011;1248;48.694;10.160;2023-02-15T01:10:26;189.00;;;37.33;;
2474;SDS011;1248;48.694;10.160;2023-02-15T01:12:54;141.03;;;37.90;;
2474;SDS011;1248;48.694;10.160;2023-02-15T01:15:22;115.47;;;30.90;;
2474;SDS011;1248;48.694;10.160;2023-02-15T01:17:49;101.93;;;32.80;;
2474;SDS011;1248;48.694;10.160;2023-02-15T01:20:18;197.47;;;43.53;;
2474;SDS011;1248;48.694;10.160;2023-02-15T01:22:46;109.87;;;31.87;;
2474;SDS011;1248;48.694;10.160;2023-02-15T01:25:16;137.40;;;39.10;;
2474;SDS011;1248;48.694;10.160;2023-02-15T01:27:43;95.30;;;33.90;;
2474;SDS011;1248;48.694;10.160;2023-02-15T01:30:11;143.07;;;40.67;;
2474;SDS011;1248;48.694;10.160;2023-02-15T01:32:39;150.90;;;36.63;;
2474;SDS011;1248;48.694;10.160;2023-02-15T01:35:06;107.67;;;32.27;;
2474;SDS011;1248;48.694;10.160;2023-02-15T01:37:34;93.57;;;30.80;;
2474;SDS011;1248;48.694;10.160;2023-02-15T01:40:01;99.43;;;31.00;;
2474;SDS011;1248;48.694;10.160;2023-02-15T01:42:30;66.00;;;29.57;;
2474;SDS011;1248;48.694;10.160;2023-02-15T01:44:57;107.57;;;29.37;;
2474;SDS011;1248;48.694;10.160;2023-02-15T01:47:31;152.57;;;34.97;;
2474;SDS011;1248;48.694;10.160;2023-02-15T01:50:02;83.80;;;30.57;;
2474;SDS011;1248;48.694;10.160;2023-02-15T01:52:33;119.80;;;34.23;;
2474;SDS011;1248;48.694;10.160;2023-02-15T01:55:01;89.60;;;31.77;;
2474;SDS011;1248;48.694;10.160;2023-02-15T01:57:30;107.20;;;31.17;;
2474;SDS011;1248;48.694;10.160;2023-02-15T01:59:58;98.33;;;30.30;;
2474;SDS011;1248;48.694;10.160;2023-02-15T02:02:28;96.50;;;31.97;;
2474;SDS011;1248;48.694;10.160;2023-02-15T02:04:56;127.43;;;31.53;;
2474;SDS011;1248;48.694;10.160;2023-02-15T02:07:26;142.37;;;33.53;;
2474;SDS011;1248;48.694;10.160;2023-02-15T02:09:54;125.70;;;35.17;;
2474;SDS011;1248;48.694;10.160;2023-02-15T02:12:21;79.93;;;30.07;;
2474;SDS011;1248;48.694;10.160;2023-02-15T02:14:50;93.43;;;29.40;;
2474;SDS011;1248;48.694;10.160;2023-02-15T02:17:19;120.97;;;32.63;;
2474;SDS011;1248;48.694;10.160;2023-02-15T02:32:17;68.10;;;26.90;;
2474;SDS011;1248;48.694;10.160;2023-02-15T02:35:21;67.40;;;28.50;;
2474;SDS011;1248;48.694;10.160;2023-02-15T02:37:51;75.70;;;29.63;;
2474;SDS011;1248;48.694;10.160;2023-02-15T02:40:25;86.23;;;32.23;;
2474;SDS011;1248;48.694;10.160;2023-02-15T02:42:59;92.87;;;30.80;;
2474;SDS011;1248;48.694;10.160;2023-02-15T02:45:30;114.97;;;30.70;;
2474;SDS011;1248;48.694;10.160;2023-02-15T02:48:00;80.20;;;31.90;;
2474;SDS011;1248;48.694;10.160;2023-02-15T02:50:31;78.30;;;28.30;;
2474;SDS011;1248;48.694;10.160;2023-02-15T02:52:59;112.00;;;30.00;;
2474;SDS011;1248;48.694;10.160;2023-02-15T02:55:27;99.73;;;28.17;;
2474;SDS011;1248;48.694;10.160;2023-02-15T02:57:57;72.60;;;28.80;;
2474;SDS011;1248;48.694;10.160;2023-02-15T03:00:29;89.67;;;29.07;;
2474;SDS011;1248;48.694;10.160;2023-02-15T03:02:59;42.70;;;25.23;;
2474;SDS011;1248;48.694;10.160;2023-02-15T03:05:31;62.13;;;28.07;;
2474;SDS011;1248;48.694;10.160;2023-02-15T03:08:00;52.70;;;25.27;;
2474;SDS011;1248;48.694;10.160;2023-02-15T03:10:31;56.73;;;24.20;;
2474;SDS011;1248;48.694;10.160;2023-02-15T03:13:00;53.83;;;25.60;;
2474;SDS011;1248;48.694;10.160;2023-02-15T03:15:28;56.73;;;26.27;;
2474;SDS011;1248;48.694;10.160;2023-02-15T03:18:17;67.93;;;25.47;;
2474;SDS011;1248;48.694;10.160;2023-02-15T03:20:46;46.77;;;24.47;;
2474;SDS011;1248;48.694;10.160;2023-02-15T03:23:14;45.93;;;24.73;;
2474;SDS011;1248;48.694;10.160;2023-02-15T03:25:45;57.73;;;28.10;;
2474;SDS011;1248;48.694;10.160;2023-02-15T03:28:16;47.70;;;27.10;;
2474;SDS011;1248;48.694;10.160;2023-02-15T03:30:45;69.17;;;28.17;;
2474;SDS011;1248;48.694;10.160;2023-02-15T03:33:15;49.77;;;26.43;;
2474;SDS011;1248;48.694;10.160;2023-02-15T03:35:44;44.50;;;25.60;;
2474;SDS011;1248;48.694;10.160;2023-02-15T03:38:17;67.97;;;28.67;;
2474;SDS011;1248;48.694;10.160;2023-02-15T03:40:47;129.33;;;31.40;;
2474;SDS011;1248;48.694;10.160;2023-02-15T03:43:33;54.43;;;25.60;;
2474;SDS011;1248;48.694;10.160;2023-02-15T03:46:08;62.07;;;25.97;;
2474;SDS011;1248;48.694;10.160;2023-02-15T03:48:40;55.93;;;26.23;;
2474;SDS011;1248;48.694;10.160;2023-02-15T03:51:10;44.47;;;22.67;;
2474;SDS011;1248;48.694;10.160;2023-02-15T03:53:58;55.50;;;23.37;;
2474;SDS011;1248;48.694;10.160;2023-02-15T03:56:25;39.37;;;21.50;;
2474;SDS011;1248;48.694;10.160;2023-02-15T03:58:53;45.77;;;25.53;;
2474;SDS011;1248;48.694;10.160;2023-02-15T04:01:38;51.73;;;24.23;;
2474;SDS011;1248;48.694;10.160;2023-02-15T04:04:26;59.90;;;26.63;;
2474;SDS011;1248;48.694;10.160;2023-02-15T04:07:00;48.40;;;23.97;;
2474;SDS011;1248;48.694;10.160;2023-02-15T04:09:27;48.00;;;25.47;;
2474;SDS011;1248;48.694;10.160;2023-02-15T04:12:12;53.73;;;25.77;;
2474;SDS011;1248;48.694;10.160;2023-02-15T04:14:39;51.63;;;25.20;;
2474;SDS011;1248;48.694;10.160;2023-02-15T04:17:24;45.53;;;23.30;;
2474;SDS011;1248;48.694;10.160;2023-02-15T04:19:51;52.73;;;24.93;;
2474;SDS011;1248;48.694;10.160;2023-02-15T04:22:37;44.93;;;22.90;;
2474;SDS011;1248;48.694;10.160;2023-02-15T04:25:21;40.20;;;24.47;;
2474;SDS011;1248;48.694;10.160;2023-02-15T04:27:50;49.57;;;25.87;;
2474;SDS011;1248;48.694;10.160;2023-02-15T04:30:19;45.13;;;24.50;;
2474;SDS011;1248;48.694;10.160;2023-02-15T04:32:47;54.17;;;23.00;;
2474;SDS011;1248;48.694;10.160;2023-02-15T04:35:14;42.70;;;24.23;;
2474;SDS011;1248;48.694;10.160;2023-02-15T04:37:43;75.57;;;25.47;;
2474;SDS011;1248;48.694;10.160;2023-02-15T04:40:11;71.30;;;26.83;;
2474;SDS011;1248;48.694;10.160;2023-02-15T04:42:39;75.10;;;25.93;;
2474;SDS011;1248;48.694;10.160;2023-02-15T04:45:06;49.73;;;24.30;;
2474;SDS011;1248;48.694;10.160;2023-02-15T04:47:34;44.63;;;24.90;;
2474;SDS011;1248;48.694;10.160;2023-02-15T04:50:01;50.40;;;25.83;;
2474;SDS011;1248;48.694;10.160;2023-02-15T04:52:28;31.80;;;23.20;;
2474;SDS011;1248;48.694;10.160;2023-02-15T04:54:57;53.70;;;23.83;;
2474;SDS011;1248;48.694;10.160;2023-02-15T04:57:24;44.40;;;23.77;;
2474;SDS011;1248;48.694;10.160;2023-02-15T04:59:51;50.20;;;24.40;;
2474;SDS011;1248;48.694;10.160;2023-02-15T05:02:18;39.83;;;21.67;;
2474;SDS011;1248;48.694;10.160;2023-02-15T05:04:45;47.47;;;23.80;;
2474;SDS011;1248;48.694;10.160;2023-02-15T05:07:12;46.70;;;23.23;;
2474;SDS011;1248;48.694;10.160;2023-02-15T05:09:40;47.63;;;20.73;;
2474;SDS011;1248;48.694;10.160;2023-02-15T05:12:08;43.03;;;23.43;;
2474;SDS011;1248;48.694;10.160;2023-02-15T05:14:35;51.53;;;24.37;;
2474;SDS011;1248;48.694;10.160;2023-02-15T05:17:02;43.17;;;23.40;;
2474;SDS011;1248;48.694;10.160;2023-02-15T05:19:30;35.10;;;20.80;;
2474;SDS011;1248;48.694;10.160;2023-02-15T05:21:57;36.60;;;21.27;;
2474;SDS011;1248;48.694;10.160;2023-02-15T05:24:24;65.13;;;23.63;;
2474;SDS011;1248;48.694;10.160;2023-02-15T05:27:11;39.20;;;20.67;;
2474;SDS011;1248;48.694;10.160;2023-02-15T05:29:56;33.07;;;20.83;;
2474;SDS011;1248;48.694;10.160;2023-02-15T05:32:23;27.53;;;20.10;;
2474;SDS011;1248;48.694;10.160;2023-02-15T05:34:50;33.87;;;21.43;;
2474;SDS011;1248;48.694;10.160;2023-02-15T05:37:17;52.27;;;22.30;;
2474;SDS011;1248;48.694;10.160;2023-02-15T05:39:44;34.73;;;20.00;;
2474;SDS011;1248;48.694;10.160;2023-02-15T05:42:13;43.73;;;22.40;;
2474;SDS011;1248;48.694;10.160;2023-02-15T05:44:40;45.67;;;22.70;;
2474;SDS011;1248;48.694;10.160;2023-02-15T05:47:07;38.37;;;22.53;;
2474;SDS011;1248;48.694;10.160;2023-02-15T05:49:34;33.30;;;22.43;;
2474;SDS011;1248;48.694;10.160;2023-02-15T05:52:02;35.10;;;21.70;;
2474;SDS011;1248;48.694;10.160;2023-02-15T05:54:29;46.77;;;24.00;;
2474;SDS011;1248;48.694;10.160;2023-02-15T05:56:56;43.37;;;24.33;;
2474;SDS011;1248;48.694;10.160;2023-02-15T05:59:24;42.17;;;23.47;;
2474;SDS011;1248;48.694;10.160;2023-02-15T06:01:52;39.20;;;22.87;;
2474;SDS011;1248;48.694;10.160;2023-02-15T06:04:19;38.37;;;22.90;;
2474;SDS011;1248;48.694;10.160;2023-02-15T06:06:46;37.50;;;21.60;;
2474;SDS011;1248;48.694;10.160;2023-02-15T06:09:13;47.73;;;21.57;;
2474;SDS011;1248;48.694;10.160;2023-02-15T06:11:40;41.10;;;20.77;;
2474;SDS011;1248;48.694;10.160;2023-02-15T06:14:07;38.57;;;22.37;;
2474;SDS011;1248;48.694;10.160;2023-02-15T06:16:35;45.87;;;20.53;;
2474;SDS011;1248;48.694;10.160;2023-02-15T06:19:03;53.23;;;22.90;;
2474;SDS011;1248;48.694;10.160;2023-02-15T06:21:30;48.73;;;18.63;;
2474;SDS011;1248;48.694;10.160;2023-02-15T06:23:57;71.20;;;21.30;;
2474;SDS011;1248;48.694;10.160;2023-02-15T06:26:24;34.53;;;18.67;;
2474;SDS011;1248;48.694;10.160;2023-02-15T06:28:51;27.27;;;17.93;;
2474;SDS011;1248;48.694;10.160;2023-02-15T06:31:18;59.07;;;23.07;;
2474;SDS011;1248;48.694;10.160;2023-02-15T06:33:47;36.13;;;21.30;;
2474;SDS011;1248;48.694;10.160;2023-02-15T06:36:14;38.90;;;18.83;;
2474;SDS011;1248;48.694;10.160;2023-02-15T06:38:41;68.10;;;19.93;;
2474;SDS011;1248;48.694;10.160;2023-02-15T06:41:08;43.73;;;18.90;;
2474;SDS011;1248;48.694;10.160;2023-02-15T06:43:35;32.00;;;18.90;;
2474;SDS011;1248;48.694;10.160;2023-02-15T06:46:02;52.13;;;22.70;;
2474;SDS011;1248;48.694;10.160;2023-02-15T06:48:29;31.03;;;20.23;;
2474;SDS011;1248;48.694;10.160;2023-02-15T06:50:57;36.13;;;19.67;;
2474;SDS011;1248;48.694;10.160;2023-02-15T06:53:24;35.33;;;20.50;;
2474;SDS011;1248;48.694;10.160;2023-02-15T06:55:51;31.10;;;17.47;;
2474;SDS011;1248;48.694;10.160;2023-02-15T06:58:18;39.57;;;20.57;;
2474;SDS011;1248;48.694;10.160;2023-02-15T07:00:45;42.53;;;20.83;;
2474;SDS011;1248;48.694;10.160;2023-02-15T07:03:13;45.37;;;19.30;;
2474;SDS011;1248;48.694;10.160;2023-02-15T07:05:40;33.87;;;19.00;;
2474;SDS011;1248;48.694;10.160;2023-02-15T07:08:08;29.60;;;19.03;;
2474;SDS011;1248;48.694;10.160;2023-02-15T07:10:35;49.23;;;20.70;;
2474;SDS011;1248;48.694;10.160;2023-02-15T07:13:02;33.17;;;20.23;;
2474;SDS011;1248;48.694;10.160;2023-02-15T07:15:28;37.53;;;18.20;;
2474;SDS011;1248;48.694;10.160;2023-02-15T07:17:56;36.07;;;18.67;;
2474;SDS011;1248;48.694;10.160;2023-02-15T07:20:23;30.50;;;18.33;;
2474;SDS011;1248;48.694;10.160;2023-02-15T07:22:51;36.73;;;20.80;;
2474;SDS011;1248;48.694;10.160;2023-02-15T07:25:19;34.50;;;18.27;;
2474;SDS011;1248;48.694;10.160;2023-02-15T07:27:46;26.10;;;18.57;;
2474;SDS011;1248;48.694;10.160;2023-02-15T07:30:15;33.27;;;18.13;;
2474;SDS011;1248;48.694;10.160;2023-02-15T07:32:42;33.60;;;18.73;;
2474;SDS011;1248;48.694;10.160;2023-02-15T07:35:24;27.00;;;19.30;;
2474;SDS011;1248;48.694;10.160;2023-02-15T07:37:51;33.53;;;20.90;;
2474;SDS011;1248;48.694;10.160;2023-02-15T07:40:20;33.27;;;18.73;;
2474;SDS011;1248;48.694;10.160;2023-02-15T07:42:49;31.83;;;19.90;;
2474;SDS011;1248;48.694;10.160;2023-02-15T07:45:18;31.37;;;20.03;;
2474;SDS011;1248;48.694;10.160;2023-02-15T07:47:45;33.50;;;19.13;;
2474;SDS011;1248;48.694;10.160;2023-02-15T07:50:12;36.67;;;20.07;;
2474;SDS011;1248;48.694;10.160;2023-02-15T07:52:39;38.50;;;20.90;;
2474;SDS011;1248;48.694;10.160;2023-02-15T07:55:07;35.07;;;20.77;;
2474;SDS011;1248;48.694;10.160;2023-02-15T07:57:42;32.40;;;20.70;;
2474;SDS011;1248;48.694;10.160;2023-02-15T08:00:10;31.43;;;21.10;;
2474;SDS011;1248;48.694;10.160;2023-02-15T08:02:38;26.70;;;19.10;;
2474;SDS011;1248;48.694;10.160;2023-02-15T08:05:05;26.83;;;19.17;;
2474;SDS011;1248;48.694;10.160;2023-02-15T08:07:33;30.87;;;19.10;;
2474;SDS011;1248;48.694;10.160;2023-02-15T08:10:00;30.57;;;20.47;;
2474;SDS011;1248;48.694;10.160;2023-02-15T08:12:27;26.17;;;20.50;;
2474;SDS011;1248;48.694;10.160;2023-02-15T08:14:55;33.53;;;20.07;;
2474;SDS011;1248;48.694;10.160;2023-02-15T08:17:22;31.60;;;21.23;;
2474;SDS011;1248;48.694;10.160;2023-02-15T08:19:50;33.00;;;19.40;;
2474;SDS011;1248;48.694;10.160;2023-02-15T08:22:17;28.73;;;19.30;;
2474;SDS011;1248;48.694;10.160;2023-02-15T08:24:44;27.03;;;18.93;;
2474;SDS011;1248;48.694;10.160;2023-02-15T08:27:11;31.37;;;19.80;;
2474;SDS011;1248;48.694;10.160;2023-02-15T08:29:38;36.30;;;20.77;;
2474;SDS011;1248;48.694;10.160;2023-02-15T08:32:09;26.63;;;18.63;;
2474;SDS011;1248;48.694;10.160;2023-02-15T08:34:38;27.93;;;18.60;;
2474;SDS011;1248;48.694;10.160;2023-02-15T08:37:06;37.63;;;19.93;;
2474;SDS011;1248;48.694;10.160;2023-02-15T08:39:33;32.33;;;19.90;;
2474;SDS011;1248;48.694;10.160;2023-02-15T08:42:01;36.40;;;21.60;;
2474;SDS011;1248;48.694;10.160;2023-02-15T08:44:28;34.33;;;19.80;;
2474;SDS011;1248;48.694;10.160;2023-02-15T08:46:55;46.77;;;20.87;;
2474;SDS011;1248;48.694;10.160;2023-02-15T08:49:29;31.20;;;20.90;;
2474;SDS011;1248;48.694;10.160;2023-02-15T08:51:56;34.80;;;20.83;;
2474;SDS011;1248;48.694;10.160;2023-02-15T08:54:23;41.93;;;22.20;;
2474;SDS011;1248;48.694;10.160;2023-02-15T08:56:50;28.80;;;19.23;;
2474;SDS011;1248;48.694;10.160;2023-02-15T08:59:18;30.73;;;20.30;;
2474;SDS011;1248;48.694;10.160;2023-02-15T09:01:46;29.70;;;19.63;;
2474;SDS011;1248;48.694;10.160;2023-02-15T09:04:14;31.20;;;20.13;;
2474;SDS011;1248;48.694;10.160;2023-02-15T09:06:44;32.23;;;21.60;;
2474;SDS011;1248;48.694;10.160;2023-02-15T09:09:11;39.00;;;21.07;;
2474;SDS011;1248;48.694;10.160;2023-02-15T09:11:39;33.63;;;21.40;;
2474;SDS011;1248;48.694;10.160;2023-02-15T09:14:08;35.50;;;20.80;;
2474;SDS011;1248;48.694;10.160;2023-02-15T09:16:36;35.70;;;20.67;;
2474;SDS011;1248;48.694;10.160;2023-02-15T09:19:04;42.47;;;22.43;;
2474;SDS011;1248;48.694;10.160;2023-02-15T09:21:31;37.20;;;21.43;;
2474;SDS011;1248;48.694;10.160;2023-02-15T09:24:01;36.00;;;23.57;;
2474;SDS011;1248;48.694;10.160;2023-02-15T09:26:29;41.17;;;22.87;;
2474;SDS011;1248;48.694;10.160;2023-02-15T09:28:58;41.07;;;24.47;;
2474;SDS011;1248;48.694;10.160;2023-02-15T09:31:27;40.40;;;23.50;;
2474;SDS011;1248;48.694;10.160;2023-02-15T09:33:54;39.10;;;23.33;;
2474;SDS011;1248;48.694;10.160;2023-02-15T09:36:23;40.37;;;22.97;;
2474;SDS011;1248;48.694;10.160;2023-02-15T09:38:53;48.90;;;27.60;;
2474;SDS011;1248;48.694;10.160;2023-02-15T09:44:37;44.07;;;25.60;;
2474;SDS011;1248;48.694;10.160;2023-02-15T09:50:17;48.13;;;26.73;;
2474;SDS011;1248;48.694;10.160;2023-02-15T09:52:53;48.90;;;26.10;;
2474;SDS011;1248;48.694;10.160;2023-02-15T09:55:33;47.50;;;26.30;;
2474;SDS011;1248;48.694;10.160;2023-02-15T09:58:08;54.97;;;26.53;;
2474;SDS011;1248;48.694;10.160;2023-02-15T10:00:42;51.53;;;26.70;;
2474;SDS011;1248;48.694;10.160;2023-02-15T10:03:16;51.07;;;24.67;;
2474;SDS011;1248;48.694;10.160;2023-02-15T10:05:53;40.13;;;24.10;;
2474;SDS011;1248;48.694;10.160;2023-02-15T10:08:32;43.30;;;21.90;;
2474;SDS011;1248;48.694;10.160;2023-02-15T10:11:11;39.17;;;23.77;;
2474;SDS011;1248;48.694;10.160;2023-02-15T10:14:03;37.70;;;22.33;;
2474;SDS011;1248;48.694;10.160;2023-02-15T10:16:51;37.97;;;21.70;;
2474;SDS011;1248;48.694;10.160;2023-02-15T10:19:25;34.47;;;21.23;;
2474;SDS011;1248;48.694;10.160;2023-02-15T10:21:57;33.83;;;21.77;;
2474;SDS011;1248;48.694;10.160;2023-02-15T10:27:21;30.83;;;19.50;;
2474;SDS011;1248;48.694;10.160;2023-02-15T10:29:50;29.17;;;19.00;;
2474;SDS011;1248;48.694;10.160;2023-02-15T10:32:28;31.90;;;21.27;;
2474;SDS011;1248;48.694;10.160;2023-02-15T10:34:58;34.40;;;20.87;;
2474;SDS011;1248;48.694;10.160;2023-02-15T10:37:41;32.67;;;22.73;;
2474;SDS011;1248;48.694;10.160;2023-02-15T10:40:14;30.87;;;19.10;;
2474;SDS011;1248;48.694;10.160;2023-02-15T10:42:51;28.83;;;19.43;;
2474;SDS011;1248;48.694;10.160;2023-02-15T10:45:28;29.37;;;19.87;;
2474;SDS011;1248;48.694;10.160;2023-02-15T10:48:04;29.47;;;20.70;;
2474;SDS011;1248;48.694;10.160;2023-02-15T10:50:47;25.17;;;18.87;;
2474;SDS011;1248;48.694;10.160;2023-02-15T10:56:19;32.00;;;19.57;;
2474;SDS011;1248;48.694;10.160;2023-02-15T10:59:01;27.03;;;19.30;;
2474;SDS011;1248;48.694;10.160;2023-02-15T11:01:47;31.43;;;20.00;;
2474;SDS011;1248;48.694;10.160;2023-02-15T11:07:04;30.23;;;21.13;;
2474;SDS011;1248;48.694;10.160;2023-02-15T11:09:36;27.60;;;18.73;;
2474;SDS011;1248;48.694;10.160;2023-02-15T11:12:07;31.67;;;20.47;;
2474;SDS011;1248;48.694;10.160;2023-02-15T11:14:40;29.17;;;19.73;;
2474;SDS011;1248;48.694;10.160;2023-02-15T11:17:11;30.40;;;20.43;;
2474;SDS011;1248;48.694;10.160;2023-02-15T11:19:44;32.40;;;20.90;;
2474;SDS011;1248;48.694;10.160;2023-02-15T11:22:16;34.43;;;21.17;;
2474;SDS011;1248;48.694;10.160;2023-02-15T11:24:44;31.23;;;20.20;;
2474;SDS011;1248;48.694;10.160;2023-02-15T11:27:16;33.03;;;22.17;;
2474;SDS011;1248;48.694;10.160;2023-02-15T11:29:50;29.80;;;20.90;;
2474;SDS011;1248;48.694;10.160;2023-02-15T11:32:21;32.43;;;21.73;;
2474;SDS011;1248;48.694;10.160;2023-02-15T11:34:53;32.23;;;21.60;;
2474;SDS011;1248;48.694;10.160;2023-02-15T11:37:24;34.40;;;21.63;;
2474;SDS011;1248;48.694;10.160;2023-02-15T11:39:56;32.70;;;22.00;;
2474;SDS011;1248;48.694;10.160;2023-02-15T11:42:23;30.57;;;20.57;;
2474;SDS011;1248;48.694;10.160;2023-02-15T11:44:54;35.93;;;22.00;;
2474;SDS011;1248;48.694;10.160;2023-02-15T11:47:24;37.97;;;21.80;;
2474;SDS011;1248;48.694;10.160;2023-02-15T11:49:53;32.13;;;21.53;;
2474;SDS011;1248;48.694;10.160;2023-02-15T11:52:20;32.93;;;22.40;;
2474;SDS011;1248;48.694;10.160;2023-02-15T11:54:47;35.60;;;23.50;;
2474;SDS011;1248;48.694;10.160;2023-02-15T11:57:17;31.30;;;21.60;;
2474;SDS011;1248;48.694;10.160;2023-02-15T11:59:47;35.07;;;22.80;;
2474;SDS011;1248;48.694;10.160;2023-02-15T12:02:18;34.95;;;25.60;;
2474;SDS011;1248;48.694;10.160;2023-02-15T12:04:47;41.60;;;23.47;;
2474;SDS011;1248;48.694;10.160;2023-02-15T12:07:19;39.00;;;22.97;;
2474;SDS011;1248;48.694;10.160;2023-02-15T12:09:52;31.87;;;21.27;;
2474;SDS011;1248;48.694;10.160;2023-02-15T12:12:23;41.00;;;23.60;;
2474;SDS011;1248;48.694;10.160;2023-02-15T12:14:52;37.33;;;23.83;;
2474;SDS011;1248;48.694;10.160;2023-02-15T12:17:20;39.70;;;24.80;;
2474;SDS011;1248;48.694;10.160;2023-02-15T12:19:48;35.23;;;23.07;;
2474;SDS011;1248;48.694;10.160;2023-02-15T12:22:22;36.93;;;22.90;;
2474;SDS011;1248;48.694;10.160;2023-02-15T12:24:51;36.63;;;23.70;;
2474;SDS011;1248;48.694;10.160;2023-02-15T12:27:20;35.40;;;23.57;;
2474;SDS011;1248;48.694;10.160;2023-02-15T12:29:49;37.93;;;25.40;;
2474;SDS011;1248;48.694;10.160;2023-02-15T12:32:17;39.07;;;24.83;;
2474;SDS011;1248;48.694;10.160;2023-02-15T12:34:45;38.53;;;23.30;;
2474;SDS011;1248;48.694;10.160;2023-02-15T12:37:15;44.20;;;25.33;;
2474;SDS011;1248;48.694;10.160;2023-02-15T12:39:55;42.63;;;26.07;;
2474;SDS011;1248;48.694;10.160;2023-02-15T12:42:23;44.33;;;26.37;;
2474;SDS011;1248;48.694;10.160;2023-02-15T12:44:55;46.53;;;25.40;;
2474;SDS011;1248;48.694;10.160;2023-02-15T12:47:24;44.70;;;26.17;;
2474;SDS011;1248;48.694;10.160;2023-02-15T12:50:04;49.00;;;28.00;;
2474;SDS011;1248;48.694;10.160;2023-02-15T12:52:34;43.20;;;28.90;;
2474;SDS011;1248;48.694;10.160;2023-02-15T12:55:11;39.77;;;25.47;;
2474;SDS011;1248;48.694;10.160;2023-02-15T12:57:48;47.87;;;27.70;;
2474;SDS011;1248;48.694;10.160;2023-02-15T13:00:26;51.60;;;28.90;;
2474;SDS011;1248;48.694;10.160;2023-02-15T13:02:57;47.53;;;28.37;;
2474;SDS011;1248;48.694;10.160;2023-02-15T13:05:25;42.37;;;26.20;;
2474;SDS011;1248;48.694;10.160;2023-02-15T13:07:55;50.13;;;29.30;;
2474;SDS011;1248;48.694;10.160;2023-02-15T13:10:25;45.13;;;26.43;;
2474;SDS011;1248;48.694;10.160;2023-02-15T13:12:54;40.53;;;27.00;;
2474;SDS011;1248;48.694;10.160;2023-02-15T13:15:24;42.93;;;26.40;;
2474;SDS011;1248;48.694;10.160;2023-02-15T13:17:53;41.13;;;25.80;;
2474;SDS011;1248;48.694;10.160;2023-02-15T13:20:22;40.30;;;27.07;;
2474;SDS011;1248;48.694;10.160;2023-02-15T13:22:50;44.50;;;26.13;;
2474;SDS011;1248;48.694;10.160;2023-02-15T13:25:19;34.20;;;23.60;;
2474;SDS011;1248;48.694;10.160;2023-02-15T13:27:51;46.70;;;26.67;;
2474;SDS011;1248;48.694;10.160;2023-02-15T13:30:23;36.70;;;23.80;;
2474;SDS011;1248;48.694;10.160;2023-02-15T13:32:52;38.60;;;25.07;;
2474;SDS011;1248;48.694;10.160;2023-02-15T13:35:21;35.13;;;23.83;;
2474;SDS011;1248;48.694;10.160;2023-02-15T13:37:56;36.03;;;23.93;;
2474;SDS011;1248;48.694;10.160;2023-02-15T13:40:40;40.47;;;26.20;;
2474;SDS011;1248;48.694;10.160;2023-02-15T13:43:16;45.40;;;25.83;;
2474;SDS011;1248;48.694;10.160;2023-02-15T13:45:53;39.87;;;24.27;;
2474;SDS011;1248;48.694;10.160;2023-02-15T13:48:26;39.87;;;23.87;;
2474;SDS011;1248;48.694;10.160;2023-02-15T13:51:01;37.07;;;25.07;;
2474;SDS011;1248;48.694;10.160;2023-02-15T13:53:36;34.60;;;24.17;;
2474;SDS011;1248;48.694;10.160;2023-02-15T13:56:11;33.97;;;23.23;;
2474;SDS011;1248;48.694;10.160;2023-02-15T13:58:56;36.47;;;22.83;;
2474;SDS011;1248;48.694;10.160;2023-02-15T14:01:44;32.37;;;23.03;;
2474;SDS011;1248;48.694;10.160;2023-02-15T14:04:24;34.40;;;23.40;;
2474;SDS011;1248;48.694;10.160;2023-02-15T14:07:25;32.87;;;22.20;;
2474;SDS011;1248;48.694;10.160;2023-02-15T14:10:02;38.43;;;25.00;;
2474;SDS011;1248;48.694;10.160;2023-02-15T14:12:45;37.33;;;23.70;;
2474;SDS011;1248;48.694;10.160;2023-02-15T14:15:26;37.43;;;24.00;;
2474;SDS011;1248;48.694;10.160;2023-02-15T14:18:00;35.30;;;23.07;;
2474;SDS011;1248;48.694;10.160;2023-02-15T14:20:39;39.03;;;25.53;;
2474;SDS011;1248;48.694;10.160;2023-02-15T14:23:12;37.57;;;23.40;;
2474;SDS011;1248;48.694;10.160;2023-02-15T14:25:44;38.93;;;24.53;;
2474;SDS011;1248;48.694;10.160;2023-02-15T14:28:16;38.90;;;24.90;;
2474;SDS011;1248;48.694;10.160;2023-02-15T14:30:49;43.43;;;25.37;;
2474;SDS011;1248;48.694;10.160;2023-02-15T14:33:25;34.60;;;23.67;;
2474;SDS011;1248;48.694;10.160;2023-02-15T14:35:58;43.00;;;26.67;;
2474;SDS011;1248;48.694;10.160;2023-02-15T14:38:29;41.90;;;25.60;;
2474;SDS011;1248;48.694;10.160;2023-02-15T14:41:04;40.23;;;24.60;;
2474;SDS011;1248;48.694;10.160;2023-02-15T14:43:35;39.17;;;26.30;;
2474;SDS011;1248;48.694;10.160;2023-02-15T14:46:10;40.90;;;26.20;;
2474;SDS011;1248;48.694;10.160;2023-02-15T14:48:44;42.60;;;26.17;;
2474;SDS011;1248;48.694;10.160;2023-02-15T14:57:21;43.20;;;27.40;;
2474;SDS011;1248;48.694;10.160;2023-02-15T14:59:50;44.83;;;28.70;;
2474;SDS011;1248;48.694;10.160;2023-02-15T15:02:24;40.67;;;26.67;;
2474;SDS011;1248;48.694;10.160;2023-02-15T15:04:57;45.90;;;26.13;;
2474;SDS011;1248;48.694;10.160;2023-02-15T15:07:27;42.57;;;26.97;;
2474;SDS011;1248;48.694;10.160;2023-02-15T15:10:03;47.83;;;29.23;;
2474;SDS011;1248;48.694;10.160;2023-02-15T15:12:41;41.93;;;25.90;;
2474;SDS011;1248;48.694;10.160;2023-02-15T15:15:11;41.57;;;26.57;;
2474;SDS011;1248;48.694;10.160;2023-02-15T15:17:57;51.60;;;29.57;;
2474;SDS011;1248;48.694;10.160;2023-02-15T15:26:21;57.73;;;30.63;;
2474;SDS011;1248;48.694;10.160;2023-02-15T15:28:53;50.70;;;30.07;;
2474;SDS011;1248;48.694;10.160;2023-02-15T15:31:25;50.07;;;29.60;;
2474;SDS011;1248;48.694;10.160;2023-02-15T15:34:04;49.17;;;29.93;;